createdAt,value
2019-03-06T00:01:21.073Z,99.60
2019-03-06T00:03:51.491Z,99.50
2019-03-06T00:06:21.865Z,99.50
2019-03-06T00:08:52.305Z,99.50
2019-03-06T00:11:22.670Z,99.50
2019-03-06T00:13:53.141Z,99.50
2019-03-06T00:16:23.484Z,99.60
2019-03-06T00:18:54.394Z,99.70
2019-03-06T00:21:24.762Z,99.70
2019-03-06T00:23:55.207Z,99.60
2019-03-06T00:26:27.167Z,99.50
2019-03-06T00:28:57.662Z,99.40
2019-03-06T00:31:28.036Z,99.40
2019-03-06T00:33:58.481Z,99.20
2019-03-06T00:36:30.114Z,99.20
2019-03-06T00:39:00.605Z,99.20
2019-03-06T00:41:32.585Z,99.20
2019-03-06T00:44:03.135Z,99.00
2019-03-06T00:46:33.578Z,99.00
2019-03-06T00:49:04.468Z,99.00
2019-03-06T00:51:34.851Z,99.00
2019-03-06T00:54:05.298Z,99.00
2019-03-06T00:56:35.722Z,98.80
2019-03-06T00:59:06.286Z,98.90
2019-03-06T01:01:36.683Z,99.00
2019-03-06T01:04:07.192Z,99.10
2019-03-06T01:06:37.724Z,99.10
2019-03-06T01:09:09.371Z,99.20
2019-03-06T01:11:39.809Z,99.30
2019-03-06T01:14:10.261Z,99.30
2019-03-06T01:16:40.741Z,99.50
2019-03-06T01:19:11.112Z,99.70
2019-03-06T01:21:41.587Z,99.70
2019-03-06T01:24:11.950Z,99.60
2019-03-06T01:26:42.354Z,99.40
2019-03-06T01:29:12.738Z,99.40
2019-03-06T01:31:43.168Z,99.20
2019-03-06T01:34:15.200Z,99.10
2019-03-06T01:36:49.899Z,99.00
2019-03-06T01:39:33.658Z,98.90
2019-03-06T01:42:05.660Z,98.80
2019-03-06T01:44:37.686Z,98.90
2019-03-06T01:47:08.316Z,98.90
2019-03-06T01:49:38.734Z,98.80
2019-03-06T01:52:09.101Z,99.00
2019-03-06T01:54:39.544Z,98.90
2019-03-06T01:57:09.958Z,98.90
2019-03-06T01:59:40.450Z,98.90
2019-03-06T02:02:10.879Z,98.90
2019-03-06T02:04:41.478Z,99.00
2019-03-06T02:07:12.083Z,98.90
2019-03-06T02:09:42.668Z,99.00
2019-03-06T02:12:12.979Z,98.90
2019-03-06T02:14:43.347Z,99.00
2019-03-06T02:17:13.880Z,98.80
2019-03-06T02:19:44.366Z,98.70
2019-03-06T02:22:14.991Z,98.70
2019-03-06T02:24:45.406Z,98.90
2019-03-06T02:27:15.877Z,98.90
2019-03-06T02:29:46.261Z,98.90
2019-03-06T02:32:16.915Z,99.00
2019-03-06T02:34:47.295Z,98.80
2019-03-06T02:37:17.743Z,98.80
2019-03-06T02:39:48.153Z,98.80
2019-03-06T02:42:18.626Z,98.70
2019-03-06T02:44:49.104Z,98.60
2019-03-06T02:47:19.655Z,98.60
2019-03-06T02:49:50.016Z,98.60
2019-03-06T02:52:20.460Z,98.50
2019-03-06T02:54:50.943Z,98.60
2019-03-06T02:57:21.373Z,98.60
2019-03-06T02:59:53.463Z,98.70
2019-03-06T03:02:25.447Z,98.70
2019-03-06T03:04:57.486Z,98.60
2019-03-06T03:07:27.885Z,98.60
2019-03-06T03:09:58.340Z,98.80
2019-03-06T03:12:28.802Z,98.90
2019-03-06T03:14:59.254Z,99.00
2019-03-06T03:17:29.623Z,98.80
2019-03-06T03:20:00.320Z,98.90
2019-03-06T03:22:30.836Z,98.90
2019-03-06T03:25:01.282Z,98.90
2019-03-06T03:27:31.676Z,99.00
2019-03-06T03:30:02.403Z,99.20
2019-03-06T03:32:32.808Z,99.30
2019-03-06T03:35:04.676Z,99.40
2019-03-06T03:37:35.090Z,99.50
2019-03-06T03:40:08.539Z,99.60
2019-03-06T03:42:38.957Z,99.70
2019-03-06T03:45:12.538Z,99.80
2019-03-06T03:47:42.907Z,99.90
2019-03-06T03:50:13.383Z,99.90
2019-03-06T03:52:44.617Z,99.90
2019-03-06T03:55:18.387Z,99.90
2019-03-06T03:57:50.376Z,99.90
2019-03-06T04:00:22.138Z,99.90
2019-03-06T04:02:52.979Z,99.90
2019-03-06T04:05:23.438Z,99.90
2019-03-06T04:07:53.852Z,99.90
2019-03-06T04:10:26.285Z,99.90
2019-03-06T04:12:57.239Z,99.90
2019-03-06T04:15:27.781Z,99.90
2019-03-06T04:17:58.212Z,99.90
2019-03-06T04:20:28.719Z,99.90
2019-03-06T04:22:59.139Z,99.90
2019-03-06T04:25:30.141Z,99.90
2019-03-06T04:28:02.066Z,99.90
2019-03-06T04:30:32.544Z,99.90
2019-03-06T04:33:03.082Z,99.90
2019-03-06T04:35:33.905Z,99.90
2019-03-06T04:38:04.487Z,99.90
2019-03-06T04:40:34.931Z,99.90
2019-03-06T04:43:08.373Z,99.90
2019-03-06T04:45:41.795Z,99.90
2019-03-06T04:48:12.588Z,99.90
2019-03-06T04:53:12.578Z,99.90
2019-03-06T04:55:43.971Z,99.90
2019-03-06T04:58:16.095Z,99.90
2019-03-06T05:00:46.686Z,99.10
2019-03-06T05:03:17.100Z,97.20
2019-03-06T05:05:50.981Z,95.70
2019-03-06T05:08:21.561Z,94.00
2019-03-06T05:10:52.352Z,93.10
2019-03-06T05:13:32.252Z,92.20
2019-03-06T05:21:55.955Z,92.10
2019-03-06T05:24:29.358Z,91.70
2019-03-06T05:27:05.764Z,91.70
2019-03-06T05:29:36.295Z,93.10
2019-03-06T05:32:25.546Z,93.50
2019-03-06T05:35:06.476Z,94.00
2019-03-06T05:37:54.838Z,94.50
2019-03-06T05:40:27.597Z,95.10
2019-03-06T05:42:59.939Z,95.30
2019-03-06T05:45:34.004Z,95.60
2019-03-06T05:48:06.511Z,95.70
2019-03-06T05:50:37.752Z,95.50
2019-03-06T05:53:12.510Z,95.50
2019-03-06T05:55:43.036Z,95.40
2019-03-06T05:58:18.400Z,95.40
2019-03-06T06:00:54.124Z,94.90
2019-03-06T06:03:26.079Z,94.80
2019-03-06T06:05:57.147Z,94.60
2019-03-06T06:08:29.321Z,94.50
2019-03-06T06:11:09.196Z,94.20
2019-03-06T06:13:39.730Z,94.10
2019-03-06T06:16:10.921Z,94.00
2019-03-06T06:18:43.862Z,93.90
2019-03-06T06:21:19.980Z,93.90
2019-03-06T06:23:54.089Z,93.70
2019-03-06T06:26:24.927Z,93.60
2019-03-06T06:28:56.763Z,93.10
2019-03-06T06:31:27.668Z,93.00
2019-03-06T06:33:58.197Z,93.00
2019-03-06T06:36:28.690Z,92.90
2019-03-06T06:38:59.148Z,92.80
2019-03-06T06:41:29.606Z,92.80
2019-03-06T06:44:00.199Z,92.80
2019-03-06T06:46:34.063Z,92.50
2019-03-06T06:49:10.484Z,92.50
2019-03-06T06:51:53.298Z,92.80
2019-03-06T06:54:32.409Z,92.80
2019-03-06T06:57:13.456Z,92.40
2019-03-06T06:59:49.320Z,92.20
2019-03-06T07:02:30.420Z,92.10
2019-03-06T07:05:13.704Z,92.20
2019-03-06T07:08:00.734Z,91.90
2019-03-06T07:10:42.581Z,91.40
2019-03-06T07:13:14.739Z,91.20
2019-03-06T07:16:03.011Z,91.20
2019-03-06T07:18:41.006Z,91.10
2019-03-06T07:21:29.038Z,91.20
2019-03-06T07:24:01.174Z,91.20
2019-03-06T07:26:36.695Z,91.30
2019-03-06T07:29:14.447Z,90.90
2019-03-06T07:31:46.696Z,90.60
2019-03-06T07:34:22.977Z,90.20
2019-03-06T07:36:55.963Z,89.80
2019-03-06T07:39:28.021Z,88.70
2019-03-06T07:42:16.319Z,88.20
2019-03-06T07:45:40.548Z,88.80
2019-03-06T07:48:21.510Z,89.10
2019-03-06T07:50:53.679Z,88.90
2019-03-06T07:53:53.177Z,89.00
2019-03-06T07:56:25.446Z,88.90
2019-03-06T07:58:57.458Z,88.40
2019-03-06T08:01:36.402Z,88.00
2019-03-06T08:04:11.800Z,87.90
2019-03-06T08:06:43.933Z,87.40
2019-03-06T08:09:17.179Z,87.50
2019-03-06T08:11:57.087Z,87.40
2019-03-06T08:14:46.412Z,86.90
2019-03-06T08:17:34.506Z,86.30
2019-03-06T08:20:23.819Z,85.30
2019-03-06T08:22:57.644Z,84.00
2019-03-06T08:25:46.572Z,82.50
2019-03-06T08:28:16.988Z,83.90
2019-03-06T08:30:51.840Z,81.10
2019-03-06T08:33:23.802Z,81.10
2019-03-06T08:35:55.193Z,83.00
2019-03-06T08:38:25.614Z,81.40
2019-03-06T08:41:03.867Z,81.10
2019-03-06T08:43:34.351Z,81.80
2019-03-06T08:46:18.857Z,81.20
2019-03-06T08:48:56.665Z,81.20
2019-03-06T08:51:35.012Z,82.20
2019-03-06T08:54:18.884Z,82.70
2019-03-06T08:57:02.811Z,82.20
2019-03-06T08:59:43.523Z,82.90
2019-03-06T09:02:27.471Z,82.40
2019-03-06T09:05:10.104Z,83.10
2019-03-06T09:07:58.157Z,82.30
2019-03-06T09:10:32.965Z,81.60
2019-03-06T09:13:07.929Z,81.20
2019-03-06T09:15:45.551Z,81.30
2019-03-06T09:18:17.611Z,81.90
2019-03-06T09:20:55.494Z,81.70
2019-03-06T09:23:44.047Z,80.30
2019-03-06T09:26:22.186Z,80.80
2019-03-06T09:29:00.718Z,78.60
2019-03-06T09:31:27.915Z,77.60
2019-03-06T09:34:15.929Z,76.70
2019-03-06T09:36:50.293Z,77.00
2019-03-06T09:39:38.615Z,76.40
2019-03-06T09:42:27.299Z,76.40
2019-03-06T09:45:02.378Z,75.60
2019-03-06T09:47:49.484Z,74.30
2019-03-06T09:50:27.236Z,72.40
2019-03-06T09:53:01.774Z,70.20
2019-03-06T09:55:45.647Z,68.50
2019-03-06T09:58:18.608Z,68.70
2019-03-06T10:00:56.414Z,67.30
2019-03-06T10:03:34.547Z,66.40
2019-03-06T10:06:06.887Z,66.70
2019-03-06T10:08:56.771Z,67.00
2019-03-06T10:11:43.764Z,66.00
2019-03-06T10:14:19.069Z,65.90
2019-03-06T10:17:03.291Z,64.20
2019-03-06T10:19:41.375Z,64.20
2019-03-06T10:22:12.377Z,64.50
2019-03-06T10:24:45.609Z,61.50
2019-03-06T10:27:18.095Z,59.70
2019-03-06T10:29:49.107Z,58.70
2019-03-06T10:32:19.665Z,57.80
2019-03-06T10:34:51.704Z,58.30
2019-03-06T10:37:23.555Z,58.10
2019-03-06T10:39:54.117Z,57.70
2019-03-06T10:42:26.717Z,58.00
2019-03-06T10:44:57.261Z,56.40
2019-03-06T10:47:32.429Z,56.70
2019-03-06T10:50:03.492Z,55.30
2019-03-06T10:52:34.203Z,53.20
2019-03-06T10:55:07.062Z,54.70
2019-03-06T10:57:37.499Z,54.70
2019-03-06T11:00:16.224Z,55.40
2019-03-06T11:02:47.759Z,54.10
2019-03-06T11:05:23.522Z,54.00
2019-03-06T11:07:55.182Z,53.30
2019-03-06T11:10:26.706Z,54.10
2019-03-06T11:12:58.155Z,55.80
2019-03-06T11:15:28.915Z,58.30
2019-03-06T11:18:00.311Z,59.10
2019-03-06T11:20:33.590Z,58.50
2019-03-06T11:23:07.393Z,57.80
2019-03-06T11:25:41.326Z,57.50
2019-03-06T11:28:14.438Z,55.00
2019-03-06T11:30:48.759Z,54.20
2019-03-06T11:33:20.841Z,52.90
2019-03-06T11:35:52.744Z,51.50
2019-03-06T11:38:23.564Z,51.20
2019-03-06T11:40:54.471Z,51.70
2019-03-06T11:43:26.609Z,50.30
2019-03-06T11:45:57.063Z,50.30
2019-03-06T11:48:27.491Z,50.00
2019-03-06T11:50:59.962Z,49.00
2019-03-06T11:53:30.554Z,48.20
2019-03-06T11:56:04.406Z,47.30
2019-03-06T11:58:34.975Z,46.60
2019-03-06T12:01:08.863Z,46.60
2019-03-06T12:03:39.940Z,46.50
2019-03-06T12:06:11.844Z,46.80
2019-03-06T12:08:45.762Z,47.00
2019-03-06T12:11:15.075Z,47.60
2019-03-06T12:13:45.774Z,48.30
2019-03-06T12:16:18.746Z,48.90
2019-03-06T12:18:49.335Z,48.90
2019-03-06T12:21:21.107Z,49.10
2019-03-06T12:23:51.837Z,49.40
2019-03-06T12:26:23.230Z,49.70
2019-03-06T12:28:53.991Z,49.90
2019-03-06T12:32:01.869Z,49.70
2019-03-06T12:34:35.143Z,50.00
2019-03-06T12:37:06.335Z,50.40
2019-03-06T12:39:36.854Z,50.20
2019-03-06T12:42:14.279Z,50.60
2019-03-06T12:44:40.753Z,51.40
2019-03-06T12:47:12.843Z,51.70
2019-03-06T12:49:43.258Z,51.60
2019-03-06T12:52:21.512Z,51.90
2019-03-06T12:54:52.045Z,51.40
2019-03-06T12:57:30.317Z,51.90
2019-03-06T13:00:02.735Z,52.00
2019-03-06T13:02:33.454Z,51.80
2019-03-06T13:05:05.027Z,52.10
2019-03-06T13:07:35.483Z,52.20
2019-03-06T13:10:09.179Z,52.80
2019-03-06T13:12:39.863Z,53.50
2019-03-06T13:15:15.715Z,54.10
2019-03-06T13:17:46.148Z,55.10
2019-03-06T13:20:17.116Z,55.90
2019-03-06T13:22:48.017Z,55.40
2019-03-06T13:25:23.973Z,55.80
2019-03-06T13:27:55.883Z,56.00
2019-03-06T13:30:29.272Z,56.20
2019-03-06T13:33:04.390Z,56.60
2019-03-06T13:35:36.404Z,57.40
2019-03-06T13:38:06.865Z,58.20
2019-03-06T13:40:37.341Z,58.00
2019-03-06T13:43:11.852Z,58.10
2019-03-06T13:45:42.438Z,58.30
2019-03-06T13:48:13.039Z,58.40
2019-03-06T13:50:46.573Z,58.60
2019-03-06T13:53:20.330Z,59.60
2019-03-06T13:55:50.494Z,60.10
2019-03-06T13:58:20.938Z,60.40
2019-03-06T14:00:51.400Z,60.50
2019-03-06T14:03:24.324Z,61.20
2019-03-06T14:05:55.937Z,61.80
2019-03-06T14:08:30.739Z,62.40
2019-03-06T14:11:01.243Z,62.50
2019-03-06T14:13:56.806Z,62.80
2019-03-06T14:16:20.348Z,63.40
2019-03-06T14:18:53.040Z,64.40
2019-03-06T14:21:27.685Z,64.00
2019-03-06T14:23:59.791Z,64.90
2019-03-06T14:26:32.330Z,65.00
2019-03-06T14:29:02.442Z,65.10
2019-03-06T14:31:36.434Z,65.60
2019-03-06T14:34:06.944Z,66.60
2019-03-06T14:36:37.669Z,67.00
2019-03-06T14:39:14.169Z,67.40
2019-03-06T14:41:44.668Z,67.50
2019-03-06T14:44:15.532Z,67.80
2019-03-06T14:47:06.709Z,67.60
2019-03-06T14:49:36.330Z,67.50
2019-03-06T14:52:11.766Z,68.00
2019-03-06T14:54:42.329Z,67.50
2019-03-06T14:57:12.951Z,67.40
2019-03-06T15:00:00.701Z,67.50
2019-03-06T15:02:30.490Z,67.90
2019-03-06T15:05:01.242Z,68.40
2019-03-06T15:07:31.758Z,69.10
2019-03-06T15:10:02.226Z,69.80
2019-03-06T15:15:25.121Z,70.90
2019-03-06T15:17:57.577Z,71.70
2019-03-06T15:20:32.457Z,72.10
2019-03-06T15:23:03.619Z,72.40
2019-03-06T15:25:34.814Z,72.80
2019-03-06T15:28:05.667Z,73.60
2019-03-06T15:30:36.197Z,73.80
2019-03-06T15:33:08.474Z,73.80
2019-03-06T15:35:41.010Z,74.00
2019-03-06T15:38:12.085Z,74.20
2019-03-06T15:40:42.502Z,74.40
2019-03-06T15:43:13.416Z,75.10
2019-03-06T15:45:44.141Z,75.80
2019-03-06T15:48:14.722Z,75.90
2019-03-06T15:50:45.141Z,76.20
2019-03-06T15:53:24.081Z,77.10
2019-03-06T15:55:51.162Z,76.90
2019-03-06T15:58:21.332Z,77.10
2019-03-06T16:01:01.218Z,77.30
2019-03-06T16:03:30.171Z,77.40
2019-03-06T16:06:06.597Z,77.60
2019-03-06T16:08:38.756Z,77.90
2019-03-06T16:11:15.369Z,78.50
2019-03-06T16:13:53.997Z,78.30
2019-03-06T16:16:28.919Z,78.50
2019-03-06T16:19:03.815Z,78.00
2019-03-06T16:21:35.153Z,78.30
2019-03-06T16:24:05.872Z,78.50
2019-03-06T16:26:45.439Z,78.60
2019-03-06T16:29:18.701Z,78.50
2019-03-06T16:31:49.341Z,78.80
2019-03-06T16:34:20.135Z,78.80
2019-03-06T16:36:50.736Z,78.30
2019-03-06T16:39:42.006Z,78.40
2019-03-06T16:42:12.515Z,82.60
2019-03-06T16:44:46.430Z,77.00
2019-03-06T16:47:25.428Z,76.80
2019-03-06T17:02:14.821Z,78.70
2019-03-06T17:04:52.559Z,78.80
2019-03-06T17:07:23.193Z,79.00
2019-03-06T17:10:08.701Z,79.10
2019-03-06T17:25:23.301Z,81.10
2019-03-06T17:27:56.421Z,81.80
2019-03-06T17:30:37.438Z,82.10
2019-03-06T17:33:14.803Z,82.30
2019-03-06T17:35:47.794Z,82.60
2019-03-06T17:40:50.693Z,83.20
2019-03-06T17:43:24.670Z,83.30
2019-03-06T17:45:58.453Z,83.80
2019-03-06T17:48:29.180Z,84.20
2019-03-06T17:51:03.715Z,84.50
2019-03-06T17:53:36.999Z,84.90
2019-03-06T17:56:12.634Z,85.40
2019-03-06T17:58:56.490Z,85.80
2019-03-06T18:01:28.521Z,86.00
2019-03-06T18:04:09.618Z,86.50
2019-03-06T18:06:52.185Z,87.00
2019-03-06T18:12:32.760Z,87.20
2019-03-06T18:15:24.222Z,87.80
2019-03-06T18:18:24.266Z,88.10
2019-03-06T18:21:02.333Z,88.10
2019-03-06T18:23:36.173Z,88.20
2019-03-06T18:26:06.740Z,88.50
2019-03-06T18:28:37.335Z,88.40
2019-03-06T18:31:15.120Z,89.00
2019-03-06T18:33:51.087Z,89.30
2019-03-06T18:36:23.875Z,89.10
2019-03-06T18:38:56.040Z,89.20
2019-03-06T18:41:26.675Z,89.50
2019-03-06T18:44:01.485Z,89.10
2019-03-06T18:46:32.124Z,89.50
2019-03-06T18:49:02.847Z,89.40
2019-03-06T18:51:34.667Z,89.80
2019-03-06T18:54:08.558Z,90.10
2019-03-06T18:56:43.133Z,90.10
2019-03-06T18:59:15.596Z,90.30
2019-03-06T19:02:01.492Z,90.50
2019-03-06T19:04:32.509Z,90.50
2019-03-06T19:07:07.372Z,90.70
2019-03-06T19:09:41.022Z,90.70
2019-03-06T19:12:13.819Z,91.20
2019-03-06T19:14:48.671Z,91.20
2019-03-06T19:17:21.082Z,90.90
2019-03-06T19:20:08.717Z,91.00
2019-03-06T19:22:49.424Z,91.40
2019-03-06T19:25:26.138Z,90.90
2019-03-06T19:28:22.107Z,90.20
2019-03-06T19:30:56.265Z,90.50
2019-03-06T19:33:32.516Z,90.70
2019-03-06T19:36:06.630Z,90.40
2019-03-06T19:38:38.818Z,90.30
2019-03-06T19:41:09.523Z,90.20
2019-03-06T19:43:40.127Z,90.30
2019-03-06T19:46:12.652Z,90.50
2019-03-06T19:48:47.516Z,90.20
2019-03-06T19:51:20.440Z,90.70
2019-03-06T19:53:59.699Z,90.40
2019-03-06T19:56:35.849Z,90.70
2019-03-06T19:59:07.250Z,90.90
2019-03-06T20:01:43.564Z,90.90
2019-03-06T20:04:18.994Z,91.20
2019-03-06T20:53:42.782Z,95.10
2019-03-06T20:56:14.282Z,95.10
2019-03-06T20:58:46.425Z,95.30
2019-03-06T21:01:17.627Z,95.80
2019-03-06T21:03:57.725Z,96.20
2019-03-06T21:06:34.617Z,96.60
2019-03-06T21:09:05.239Z,97.00
2019-03-06T21:11:36.415Z,97.10
2019-03-06T21:14:09.209Z,97.20
2019-03-06T21:16:46.066Z,97.50
2019-03-06T21:19:18.074Z,97.60
2019-03-06T21:21:50.201Z,97.70
2019-03-06T21:24:22.141Z,98.00
2019-03-06T21:26:52.782Z,98.00
2019-03-06T21:29:28.258Z,98.20
2019-03-06T21:32:02.816Z,98.50
2019-03-06T21:34:33.429Z,98.70
2019-03-06T21:37:04.081Z,98.80
2019-03-06T21:39:40.761Z,99.00
2019-03-06T21:42:12.360Z,99.10
2019-03-06T21:44:42.814Z,99.00
2019-03-06T21:47:13.287Z,98.90
2019-03-06T21:49:43.953Z,98.80
2019-03-06T21:52:15.296Z,98.40
2019-03-06T21:54:45.810Z,98.40
2019-03-06T21:57:16.211Z,98.30
2019-03-06T21:59:46.880Z,98.20
2019-03-06T22:02:17.304Z,98.20
2019-03-06T22:04:47.731Z,98.60
2019-03-06T22:07:18.205Z,98.00
2019-03-06T22:09:48.715Z,97.90
2019-03-06T22:12:19.076Z,97.60
2019-03-06T22:14:49.612Z,97.70
2019-03-06T22:17:27.359Z,97.70
2019-03-06T22:19:57.766Z,97.90
2019-03-06T22:22:31.203Z,97.90
2019-03-06T22:25:01.732Z,97.90
2019-03-06T22:27:32.232Z,97.90
2019-03-06T22:30:02.676Z,98.00
2019-03-06T22:32:33.705Z,98.00
2019-03-06T22:35:06.190Z,97.80
2019-03-06T22:37:36.674Z,97.70
2019-03-06T22:40:10.016Z,97.80
2019-03-06T22:42:40.507Z,97.80
2019-03-06T22:45:28.723Z,97.70
2019-03-06T22:47:59.143Z,97.90
2019-03-06T22:50:32.568Z,97.80
2019-03-06T22:53:03.038Z,97.60
2019-03-06T22:55:33.618Z,97.50
2019-03-06T22:58:04.041Z,97.60
2019-03-06T23:00:45.039Z,97.30
2019-03-06T23:03:16.518Z,97.30
2019-03-06T23:05:47.056Z,97.30
2019-03-06T23:08:17.573Z,97.30
2019-03-06T23:10:48.309Z,97.30
2019-03-06T23:13:18.679Z,97.10
2019-03-06T23:15:49.115Z,97.10
2019-03-06T23:18:19.542Z,96.80
2019-03-06T23:20:51.132Z,96.60
2019-03-06T23:23:21.662Z,96.50
2019-03-06T23:25:52.125Z,96.40
2019-03-06T23:28:22.564Z,95.90
2019-03-06T23:30:52.982Z,95.80
2019-03-06T23:33:23.419Z,95.80
2019-03-06T23:35:53.945Z,95.50
2019-03-06T23:38:24.974Z,95.50
2019-03-06T23:40:55.386Z,95.70
2019-03-06T23:43:25.876Z,95.90
2019-03-06T23:45:56.296Z,96.10
2019-03-06T23:48:26.746Z,96.30
2019-03-06T23:50:57.275Z,96.30
2019-03-06T23:53:29.462Z,96.30
2019-03-06T23:55:59.872Z,96.40
2019-03-06T23:58:30.287Z,96.20
